sensor_id;sensor_type;location;lat;lon;timestamp;temperature;humidity
21199;DHT22;10757;51.038;3.712;2022-11-03T00:01:10;14.20;99.90
21199;DHT22;10757;51.038;3.712;2022-11-03T00:03:36;14.20;99.90
21199;DHT22;10757;51.038;3.712;2022-11-03T00:06:02;14.10;99.90
21199;DHT22;10757;51.038;3.712;2022-11-03T00:08:36;14.10;99.90
21199;DHT22;10757;51.038;3.712;2022-11-03T00:11:03;14.00;99.90
21199;DHT22;10757;51.038;3.712;2022-11-03T00:13:33;14.00;99.90
21199;DHT22;10757;51.038;3.712;2022-11-03T00:15:59;14.00;99.90
21199;DHT22;10757;51.038;3.712;2022-11-03T00:18:25;14.00;99.90
21199;DHT22;10757;51.038;3.712;2022-11-03T00:21:09;13.90;99.90
21199;DHT22;10757;51.038;3.712;2022-11-03T00:23:38;14.00;99.90
21199;DHT22;10757;51.038;3.712;2022-11-03T00:28:40;14.00;99.90
21199;DHT22;10757;51.038;3.712;2022-11-03T00:31:11;13.90;99.90
21199;DHT22;10757;51.038;3.712;2022-11-03T00:33:42;13.70;99.90
21199;DHT22;10757;51.038;3.712;2022-11-03T00:36:12;13.80;99.90
21199;DHT22;10757;51.038;3.712;2022-11-03T00:38:39;13.90;99.90
21199;DHT22;10757;51.038;3.712;2022-11-03T00:41:06;13.80;99.90
21199;DHT22;10757;51.038;3.712;2022-11-03T00:43:34;13.90;99.90
21199;DHT22;10757;51.038;3.712;2022-11-03T00:46:00;14.00;99.90
21199;DHT22;10757;51.038;3.712;2022-11-03T00:48:30;14.00;99.90
21199;DHT22;10757;51.038;3.712;2022-11-03T00:51:19;13.80;99.90
21199;DHT22;10757;51.038;3.712;2022-11-03T00:53:55;13.90;99.90
21199;DHT22;10757;51.038;3.712;2022-11-03T00:56:23;13.90;99.90
21199;DHT22;10757;51.038;3.712;2022-11-03T00:58:50;13.90;99.90
21199;DHT22;10757;51.038;3.712;2022-11-03T01:01:19;13.90;99.90
21199;DHT22;10757;51.038;3.712;2022-11-03T01:03:48;13.80;99.90
21199;DHT22;10757;51.038;3.712;2022-11-03T01:06:37;13.80;99.90
21199;DHT22;10757;51.038;3.712;2022-11-03T01:09:35;13.80;99.90
21199;DHT22;10757;51.038;3.712;2022-11-03T01:12:08;13.70;99.90
21199;DHT22;10757;51.038;3.712;2022-11-03T01:14:38;13.90;99.90
21199;DHT22;10757;51.038;3.712;2022-11-03T01:17:07;13.90;99.90
21199;DHT22;10757;51.038;3.712;2022-11-03T01:19:34;13.90;99.90
21199;DHT22;10757;51.038;3.712;2022-11-03T01:22:00;13.80;99.90
21199;DHT22;10757;51.038;3.712;2022-11-03T01:24:35;13.90;99.90
21199;DHT22;10757;51.038;3.712;2022-11-03T01:27:01;13.80;99.90
21199;DHT22;10757;51.038;3.712;2022-11-03T01:29:27;13.80;99.90
21199;DHT22;10757;51.038;3.712;2022-11-03T01:31:56;13.90;99.90
21199;DHT22;10757;51.038;3.712;2022-11-03T01:34:22;14.00;99.90
21199;DHT22;10757;51.038;3.712;2022-11-03T01:36:48;14.00;99.90
21199;DHT22;10757;51.038;3.712;2022-11-03T01:39:17;13.90;99.90
21199;DHT22;10757;51.038;3.712;2022-11-03T01:41:46;14.00;99.90
21199;DHT22;10757;51.038;3.712;2022-11-03T01:46:42;13.90;99.90
21199;DHT22;10757;51.038;3.712;2022-11-03T01:49:12;13.90;99.90
21199;DHT22;10757;51.038;3.712;2022-11-03T01:51:41;13.80;99.90
21199;DHT22;10757;51.038;3.712;2022-11-03T01:54:10;13.80;99.90
21199;DHT22;10757;51.038;3.712;2022-11-03T01:56:41;13.80;99.90
21199;DHT22;10757;51.038;3.712;2022-11-03T01:59:08;13.80;99.90
21199;DHT22;10757;51.038;3.712;2022-11-03T02:01:35;13.80;99.90
21199;DHT22;10757;51.038;3.712;2022-11-03T02:04:09;13.80;99.90
21199;DHT22;10757;51.038;3.712;2022-11-03T02:06:36;13.90;99.90
21199;DHT22;10757;51.038;3.712;2022-11-03T02:09:05;13.90;99.90
21199;DHT22;10757;51.038;3.712;2022-11-03T02:11:32;14.00;99.90
21199;DHT22;10757;51.038;3.712;2022-11-03T02:14:18;13.90;99.90
21199;DHT22;10757;51.038;3.712;2022-11-03T02:16:55;13.90;99.90
21199;DHT22;10757;51.038;3.712;2022-11-03T02:19:46;13.80;99.90
21199;DHT22;10757;51.038;3.712;2022-11-03T02:22:18;13.90;99.90
21199;DHT22;10757;51.038;3.712;2022-11-03T02:27:39;13.80;99.90
21199;DHT22;10757;51.038;3.712;2022-11-03T02:30:05;13.70;99.90
21199;DHT22;10757;51.038;3.712;2022-11-03T02:32:53;13.80;99.90
21199;DHT22;10757;51.038;3.712;2022-11-03T02:35:27;13.80;99.90
21199;DHT22;10757;51.038;3.712;2022-11-03T02:37:57;13.80;99.90
21199;DHT22;10757;51.038;3.712;2022-11-03T02:40:33;13.90;99.90
21199;DHT22;10757;51.038;3.712;2022-11-03T02:43:05;13.90;99.90
21199;DHT22;10757;51.038;3.712;2022-11-03T02:45:33;13.80;99.90
21199;DHT22;10757;51.038;3.712;2022-11-03T02:48:05;13.90;99.90
21199;DHT22;10757;51.038;3.712;2022-11-03T02:50:33;13.80;99.90
21199;DHT22;10757;51.038;3.712;2022-11-03T02:52:59;13.90;99.90
21199;DHT22;10757;51.038;3.712;2022-11-03T03:00:49;13.90;99.90
21199;DHT22;10757;51.038;3.712;2022-11-03T03:03:21;13.80;99.90
21199;DHT22;10757;51.038;3.712;2022-11-03T03:05:52;13.90;99.90
21199;DHT22;10757;51.038;3.712;2022-11-03T03:08:20;13.90;99.90
21199;DHT22;10757;51.038;3.712;2022-11-03T03:10:47;14.00;99.90
21199;DHT22;10757;51.038;3.712;2022-11-03T03:13:17;13.90;99.90
21199;DHT22;10757;51.038;3.712;2022-11-03T03:18:29;14.00;99.90
21199;DHT22;10757;51.038;3.712;2022-11-03T03:21:10;13.90;99.90
21199;DHT22;10757;51.038;3.712;2022-11-03T03:23:41;13.90;99.90
21199;DHT22;10757;51.038;3.712;2022-11-03T03:26:22;13.90;99.90
21199;DHT22;10757;51.038;3.712;2022-11-03T03:28:52;13.90;99.90
21199;DHT22;10757;51.038;3.712;2022-11-03T03:31:21;13.90;99.90
21199;DHT22;10757;51.038;3.712;2022-11-03T03:33:51;14.00;99.90
21199;DHT22;10757;51.038;3.712;2022-11-03T03:36:21;14.00;99.90
21199;DHT22;10757;51.038;3.712;2022-11-03T03:38:54;14.00;99.90
21199;DHT22;10757;51.038;3.712;2022-11-03T03:41:21;14.00;99.90
21199;DHT22;10757;51.038;3.712;2022-11-03T03:43:54;13.90;99.90
21199;DHT22;10757;51.038;3.712;2022-11-03T03:46:23;13.90;99.90
21199;DHT22;10757;51.038;3.712;2022-11-03T03:48:51;14.00;99.90
21199;DHT22;10757;51.038;3.712;2022-11-03T03:51:20;13.90;99.90
21199;DHT22;10757;51.038;3.712;2022-11-03T03:53:50;14.00;99.90
21199;DHT22;10757;51.038;3.712;2022-11-03T03:56:22;14.00;99.90
21199;DHT22;10757;51.038;3.712;2022-11-03T03:58:50;14.00;99.90
21199;DHT22;10757;51.038;3.712;2022-11-03T04:01:15;14.00;99.90
21199;DHT22;10757;51.038;3.712;2022-11-03T04:03:41;14.00;99.90
21199;DHT22;10757;51.038;3.712;2022-11-03T04:06:07;14.00;99.90
21199;DHT22;10757;51.038;3.712;2022-11-03T04:08:33;14.00;99.90
21199;DHT22;10757;51.038;3.712;2022-11-03T04:10:59;13.90;99.90
21199;DHT22;10757;51.038;3.712;2022-11-03T04:13:43;13.90;99.90
21199;DHT22;10757;51.038;3.712;2022-11-03T04:16:37;13.90;99.90
21199;DHT22;10757;51.038;3.712;2022-11-03T04:19:22;13.90;99.90
21199;DHT22;10757;51.038;3.712;2022-11-03T04:22:06;13.90;99.90
21199;DHT22;10757;51.038;3.712;2022-11-03T04:24:51;13.90;99.90
21199;DHT22;10757;51.038;3.712;2022-11-03T04:29:49;13.90;99.90
21199;DHT22;10757;51.038;3.712;2022-11-03T04:32:16;13.90;99.90
21199;DHT22;10757;51.038;3.712;2022-11-03T04:34:43;13.80;99.90
21199;DHT22;10757;51.038;3.712;2022-11-03T04:37:14;13.90;99.90
21199;DHT22;10757;51.038;3.712;2022-11-03T04:39:40;13.90;99.90
21199;DHT22;10757;51.038;3.712;2022-11-03T04:42:18;14.00;99.90
21199;DHT22;10757;51.038;3.712;2022-11-03T04:44:45;14.00;99.90
21199;DHT22;10757;51.038;3.712;2022-11-03T04:47:13;14.00;99.90
21199;DHT22;10757;51.038;3.712;2022-11-03T04:49:39;14.00;99.90
21199;DHT22;10757;51.038;3.712;2022-11-03T04:52:19;14.00;99.90
21199;DHT22;10757;51.038;3.712;2022-11-03T04:54:47;14.00;99.90
21199;DHT22;10757;51.038;3.712;2022-11-03T04:57:15;13.90;99.90
21199;DHT22;10757;51.038;3.712;2022-11-03T04:59:42;14.00;99.90
21199;DHT22;10757;51.038;3.712;2022-11-03T05:02:13;14.00;99.90
21199;DHT22;10757;51.038;3.712;2022-11-03T05:04:40;13.90;99.90
21199;DHT22;10757;51.038;3.712;2022-11-03T05:07:22;13.90;99.90
21199;DHT22;10757;51.038;3.712;2022-11-03T05:09:50;14.00;99.90
21199;DHT22;10757;51.038;3.712;2022-11-03T05:12:17;14.10;99.90
21199;DHT22;10757;51.038;3.712;2022-11-03T05:14:43;14.00;99.90
21199;DHT22;10757;51.038;3.712;2022-11-03T05:17:25;14.00;99.90
21199;DHT22;10757;51.038;3.712;2022-11-03T05:19:55;14.00;99.90
21199;DHT22;10757;51.038;3.712;2022-11-03T05:22:21;14.00;99.90
21199;DHT22;10757;51.038;3.712;2022-11-03T05:24:54;14.10;99.90
21199;DHT22;10757;51.038;3.712;2022-11-03T05:27:21;14.10;99.90
21199;DHT22;10757;51.038;3.712;2022-11-03T05:29:49;14.10;99.90
21199;DHT22;10757;51.038;3.712;2022-11-03T05:32:22;14.00;99.90
21199;DHT22;10757;51.038;3.712;2022-11-03T05:34:53;14.00;99.90
21199;DHT22;10757;51.038;3.712;2022-11-03T05:37:31;14.00;99.90
21199;DHT22;10757;51.038;3.712;2022-11-03T05:40:15;14.00;99.90
21199;DHT22;10757;51.038;3.712;2022-11-03T05:42:46;14.00;99.90
21199;DHT22;10757;51.038;3.712;2022-11-03T05:45:23;14.00;99.90
21199;DHT22;10757;51.038;3.712;2022-11-03T05:47:54;14.00;99.90
21199;DHT22;10757;51.038;3.712;2022-11-03T05:52:48;14.00;99.90
21199;DHT22;10757;51.038;3.712;2022-11-03T05:55:26;14.00;99.90
21199;DHT22;10757;51.038;3.712;2022-11-03T05:57:59;14.00;99.90
21199;DHT22;10757;51.038;3.712;2022-11-03T06:00:28;14.10;99.90
21199;DHT22;10757;51.038;3.712;2022-11-03T06:02:55;14.00;99.90
21199;DHT22;10757;51.038;3.712;2022-11-03T06:05:23;14.00;99.90
21199;DHT22;10757;51.038;3.712;2022-11-03T06:07:51;14.10;99.90
21199;DHT22;10757;51.038;3.712;2022-11-03T06:12:55;14.20;99.90
21199;DHT22;10757;51.038;3.712;2022-11-03T06:15:29;14.00;99.90
21199;DHT22;10757;51.038;3.712;2022-11-03T06:17:56;14.10;99.90
21199;DHT22;10757;51.038;3.712;2022-11-03T06:20:22;14.10;99.90
21199;DHT22;10757;51.038;3.712;2022-11-03T06:22:51;14.20;99.90
21199;DHT22;10757;51.038;3.712;2022-11-03T06:25:30;14.10;99.90
21199;DHT22;10757;51.038;3.712;2022-11-03T06:28:03;14.10;99.90
21199;DHT22;10757;51.038;3.712;2022-11-03T06:30:33;14.10;99.90
21199;DHT22;10757;51.038;3.712;2022-11-03T06:33:23;14.10;99.90
21199;DHT22;10757;51.038;3.712;2022-11-03T06:35:50;14.20;99.90
21199;DHT22;10757;51.038;3.712;2022-11-03T06:38:22;14.20;99.90
21199;DHT22;10757;51.038;3.712;2022-11-03T06:40:50;14.30;99.90
21199;DHT22;10757;51.038;3.712;2022-11-03T06:43:45;14.30;99.90
21199;DHT22;10757;51.038;3.712;2022-11-03T06:46:21;14.30;99.90
21199;DHT22;10757;51.038;3.712;2022-11-03T06:48:52;14.30;99.90
21199;DHT22;10757;51.038;3.712;2022-11-03T06:51:20;14.30;99.90
21199;DHT22;10757;51.038;3.712;2022-11-03T06:53:48;14.30;99.90
21199;DHT22;10757;51.038;3.712;2022-11-03T06:56:20;14.30;99.90
21199;DHT22;10757;51.038;3.712;2022-11-03T06:58:47;14.30;99.90
21199;DHT22;10757;51.038;3.712;2022-11-03T07:01:24;14.40;99.90
21199;DHT22;10757;51.038;3.712;2022-11-03T07:04:18;14.30;99.90
21199;DHT22;10757;51.038;3.712;2022-11-03T07:06:45;14.40;99.90
21199;DHT22;10757;51.038;3.712;2022-11-03T07:09:16;14.40;99.90
21199;DHT22;10757;51.038;3.712;2022-11-03T07:11:49;14.40;99.90
21199;DHT22;10757;51.038;3.712;2022-11-03T07:14:21;14.40;99.90
21199;DHT22;10757;51.038;3.712;2022-11-03T07:16:51;14.40;99.90
21199;DHT22;10757;51.038;3.712;2022-11-03T07:19:24;14.30;99.90
21199;DHT22;10757;51.038;3.712;2022-11-03T07:24:26;14.20;99.90
21199;DHT22;10757;51.038;3.712;2022-11-03T07:30:20;14.10;99.90
21199;DHT22;10757;51.038;3.712;2022-11-03T07:32:48;14.10;99.90
21199;DHT22;10757;51.038;3.712;2022-11-03T07:37:46;14.00;99.90
21199;DHT22;10757;51.038;3.712;2022-11-03T07:40:18;14.00;99.90
21199;DHT22;10757;51.038;3.712;2022-11-03T07:42:45;14.00;99.90
21199;DHT22;10757;51.038;3.712;2022-11-03T07:48:01;13.90;99.90
21199;DHT22;10757;51.038;3.712;2022-11-03T07:50:27;13.80;99.90
21199;DHT22;10757;51.038;3.712;2022-11-03T07:52:53;13.80;99.90
21199;DHT22;10757;51.038;3.712;2022-11-03T07:55:18;13.80;99.90
21199;DHT22;10757;51.038;3.712;2022-11-03T07:57:44;13.90;99.90
21199;DHT22;10757;51.038;3.712;2022-11-03T08:00:14;13.90;99.90
21199;DHT22;10757;51.038;3.712;2022-11-03T08:02:49;14.00;99.90
21199;DHT22;10757;51.038;3.712;2022-11-03T08:05:16;14.00;99.90
21199;DHT22;10757;51.038;3.712;2022-11-03T08:07:42;14.00;99.90
21199;DHT22;10757;51.038;3.712;2022-11-03T08:10:08;14.10;99.90
21199;DHT22;10757;51.038;3.712;2022-11-03T08:12:34;14.10;99.90
21199;DHT22;10757;51.038;3.712;2022-11-03T08:15:00;14.10;99.90
21199;DHT22;10757;51.038;3.712;2022-11-03T08:17:26;14.10;99.90
21199;DHT22;10757;51.038;3.712;2022-11-03T08:19:51;14.10;99.90
21199;DHT22;10757;51.038;3.712;2022-11-03T08:22:17;14.00;99.90
21199;DHT22;10757;51.038;3.712;2022-11-03T08:24:55;14.00;99.90
21199;DHT22;10757;51.038;3.712;2022-11-03T08:27:24;14.00;99.90
21199;DHT22;10757;51.038;3.712;2022-11-03T08:29:56;14.00;99.90
21199;DHT22;10757;51.038;3.712;2022-11-03T08:32:22;14.00;99.90
21199;DHT22;10757;51.038;3.712;2022-11-03T08:34:47;14.00;99.90
21199;DHT22;10757;51.038;3.712;2022-11-03T08:37:13;14.10;99.90
21199;DHT22;10757;51.038;3.712;2022-11-03T08:39:39;14.10;99.90
21199;DHT22;10757;51.038;3.712;2022-11-03T08:42:04;14.10;99.90
21199;DHT22;10757;51.038;3.712;2022-11-03T08:44:41;14.00;99.90
21199;DHT22;10757;51.038;3.712;2022-11-03T08:47:07;14.00;99.90
21199;DHT22;10757;51.038;3.712;2022-11-03T08:49:34;14.00;99.90
21199;DHT22;10757;51.038;3.712;2022-11-03T08:51:59;14.00;99.90
21199;DHT22;10757;51.038;3.712;2022-11-03T08:54:25;14.00;99.90
21199;DHT22;10757;51.038;3.712;2022-11-03T08:56:51;13.90;99.90
21199;DHT22;10757;51.038;3.712;2022-11-03T08:59:16;14.00;99.90
21199;DHT22;10757;51.038;3.712;2022-11-03T09:01:44;13.90;99.90
21199;DHT22;10757;51.038;3.712;2022-11-03T09:04:13;14.00;99.90
21199;DHT22;10757;51.038;3.712;2022-11-03T09:06:38;13.90;99.90
21199;DHT22;10757;51.038;3.712;2022-11-03T09:09:07;14.00;99.90
21199;DHT22;10757;51.038;3.712;2022-11-03T09:11:44;14.10;99.90
21199;DHT22;10757;51.038;3.712;2022-11-03T09:14:13;14.10;99.90
21199;DHT22;10757;51.038;3.712;2022-11-03T09:16:41;14.10;99.90
21199;DHT22;10757;51.038;3.712;2022-11-03T09:22:29;14.10;99.90
21199;DHT22;10757;51.038;3.712;2022-11-03T09:24:56;14.10;99.90
21199;DHT22;10757;51.038;3.712;2022-11-03T09:27:23;14.20;99.90
21199;DHT22;10757;51.038;3.712;2022-11-03T09:29:49;14.30;99.90
21199;DHT22;10757;51.038;3.712;2022-11-03T09:32:15;14.30;99.90
21199;DHT22;10757;51.038;3.712;2022-11-03T09:34:41;14.40;99.90
21199;DHT22;10757;51.038;3.712;2022-11-03T09:37:10;14.50;99.90
21199;DHT22;10757;51.038;3.712;2022-11-03T09:39:48;14.50;99.90
21199;DHT22;10757;51.038;3.712;2022-11-03T09:42:14;14.50;99.90
21199;DHT22;10757;51.038;3.712;2022-11-03T09:44:41;14.50;99.90
21199;DHT22;10757;51.038;3.712;2022-11-03T09:47:32;14.50;99.90
21199;DHT22;10757;51.038;3.712;2022-11-03T09:50:00;14.60;99.90
21199;DHT22;10757;51.038;3.712;2022-11-03T09:52:27;14.60;99.90
21199;DHT22;10757;51.038;3.712;2022-11-03T09:54:56;14.60;99.90
21199;DHT22;10757;51.038;3.712;2022-11-03T09:57:26;14.70;99.90
21199;DHT22;10757;51.038;3.712;2022-11-03T10:00:17;14.60;99.90
21199;DHT22;10757;51.038;3.712;2022-11-03T10:02:47;14.50;99.90
21199;DHT22;10757;51.038;3.712;2022-11-03T10:05:26;14.50;99.90
21199;DHT22;10757;51.038;3.712;2022-11-03T10:07:57;14.50;99.90
21199;DHT22;10757;51.038;3.712;2022-11-03T10:10:25;14.60;99.90
21199;DHT22;10757;51.038;3.712;2022-11-03T10:12:59;14.80;99.90
21199;DHT22;10757;51.038;3.712;2022-11-03T10:15:28;14.70;99.90
21199;DHT22;10757;51.038;3.712;2022-11-03T10:17:54;14.60;99.90
21199;DHT22;10757;51.038;3.712;2022-11-03T10:20:26;14.80;99.90
21199;DHT22;10757;51.038;3.712;2022-11-03T10:22:53;15.00;99.90
21199;DHT22;10757;51.038;3.712;2022-11-03T10:25:37;15.10;99.90
21199;DHT22;10757;51.038;3.712;2022-11-03T10:28:23;15.20;99.90
21199;DHT22;10757;51.038;3.712;2022-11-03T10:35:56;15.70;99.90
21199;DHT22;10757;51.038;3.712;2022-11-03T10:38:31;15.80;99.90
21199;DHT22;10757;51.038;3.712;2022-11-03T10:41:10;15.60;99.90
21199;DHT22;10757;51.038;3.712;2022-11-03T10:43:37;15.50;99.90
21199;DHT22;10757;51.038;3.712;2022-11-03T10:46:30;15.40;99.90
21199;DHT22;10757;51.038;3.712;2022-11-03T10:49:14;15.50;99.90
21199;DHT22;10757;51.038;3.712;2022-11-03T10:51:42;15.60;99.90
21199;DHT22;10757;51.038;3.712;2022-11-03T10:54:12;15.80;99.90
21199;DHT22;10757;51.038;3.712;2022-11-03T10:56:39;15.80;99.90
21199;DHT22;10757;51.038;3.712;2022-11-03T10:59:05;15.70;99.90
21199;DHT22;10757;51.038;3.712;2022-11-03T11:01:31;15.70;99.90
21199;DHT22;10757;51.038;3.712;2022-11-03T11:03:57;15.80;99.90
21199;DHT22;10757;51.038;3.712;2022-11-03T11:06:30;15.70;99.90
21199;DHT22;10757;51.038;3.712;2022-11-03T11:09:01;15.70;99.90
21199;DHT22;10757;51.038;3.712;2022-11-03T11:11:28;15.90;99.90
21199;DHT22;10757;51.038;3.712;2022-11-03T11:16:54;16.00;99.90
21199;DHT22;10757;51.038;3.712;2022-11-03T11:19:21;16.00;99.90
21199;DHT22;10757;51.038;3.712;2022-11-03T11:30:01;16.50;99.90
21199;DHT22;10757;51.038;3.712;2022-11-03T11:35:00;16.50;99.90
21199;DHT22;10757;51.038;3.712;2022-11-03T11:39:52;16.50;99.90
21199;DHT22;10757;51.038;3.712;2022-11-03T11:42:19;16.50;99.90
21199;DHT22;10757;51.038;3.712;2022-11-03T11:44:47;16.50;99.90
21199;DHT22;10757;51.038;3.712;2022-11-03T11:47:49;16.60;99.90
21199;DHT22;10757;51.038;3.712;2022-11-03T11:50:19;16.80;99.90
21199;DHT22;10757;51.038;3.712;2022-11-03T11:52:47;16.80;99.90
21199;DHT22;10757;51.038;3.712;2022-11-03T11:55:32;16.70;99.90
21199;DHT22;10757;51.038;3.712;2022-11-03T11:58:01;16.60;99.90
21199;DHT22;10757;51.038;3.712;2022-11-03T12:00:31;16.40;99.90
21199;DHT22;10757;51.038;3.712;2022-11-03T12:02:59;16.30;99.90
21199;DHT22;10757;51.038;3.712;2022-11-03T12:05:28;16.30;99.90
21199;DHT22;10757;51.038;3.712;2022-11-03T12:07:55;16.30;99.90
21199;DHT22;10757;51.038;3.712;2022-11-03T12:10:31;16.40;99.90
21199;DHT22;10757;51.038;3.712;2022-11-03T12:12:58;16.50;99.90
21199;DHT22;10757;51.038;3.712;2022-11-03T12:15:47;16.50;99.90
21199;DHT22;10757;51.038;3.712;2022-11-03T12:18:40;16.50;99.90
21199;DHT22;10757;51.038;3.712;2022-11-03T12:21:43;16.50;99.90
21199;DHT22;10757;51.038;3.712;2022-11-03T12:23:56;16.60;99.90
21199;DHT22;10757;51.038;3.712;2022-11-03T12:28:53;16.70;99.90
21199;DHT22;10757;51.038;3.712;2022-11-03T12:31:19;16.90;99.90
21199;DHT22;10757;51.038;3.712;2022-11-03T12:33:45;17.00;99.90
21199;DHT22;10757;51.038;3.712;2022-11-03T12:36:11;17.10;99.90
21199;DHT22;10757;51.038;3.712;2022-11-03T12:38:38;17.10;99.90
21199;DHT22;10757;51.038;3.712;2022-11-03T12:41:04;17.30;99.90
21199;DHT22;10757;51.038;3.712;2022-11-03T12:43:51;17.30;99.90
21199;DHT22;10757;51.038;3.712;2022-11-03T12:46:18;17.40;99.90
21199;DHT22;10757;51.038;3.712;2022-11-03T12:48:56;17.40;99.90
21199;DHT22;10757;51.038;3.712;2022-11-03T12:51:26;17.50;99.90
21199;DHT22;10757;51.038;3.712;2022-11-03T12:53:55;17.50;99.90
21199;DHT22;10757;51.038;3.712;2022-11-03T12:56:23;17.40;99.90
21199;DHT22;10757;51.038;3.712;2022-11-03T12:58:51;17.30;99.90
21199;DHT22;10757;51.038;3.712;2022-11-03T13:01:19;17.00;99.90
21199;DHT22;10757;51.038;3.712;2022-11-03T13:03:46;17.00;99.90
21199;DHT22;10757;51.038;3.712;2022-11-03T13:06:12;17.00;99.90
21199;DHT22;10757;51.038;3.712;2022-11-03T13:08:39;17.10;99.90
21199;DHT22;10757;51.038;3.712;2022-11-03T13:11:06;17.00;99.90
21199;DHT22;10757;51.038;3.712;2022-11-03T13:13:51;16.80;99.90
21199;DHT22;10757;51.038;3.712;2022-11-03T13:16:17;16.80;99.90
21199;DHT22;10757;51.038;3.712;2022-11-03T13:18:55;16.70;99.90
21199;DHT22;10757;51.038;3.712;2022-11-03T13:21:21;16.70;99.90
21199;DHT22;10757;51.038;3.712;2022-11-03T13:23:47;16.60;99.90
21199;DHT22;10757;51.038;3.712;2022-11-03T13:26:12;16.60;99.90
21199;DHT22;10757;51.038;3.712;2022-11-03T13:28:38;16.70;99.90
21199;DHT22;10757;51.038;3.712;2022-11-03T13:31:04;16.70;99.90
21199;DHT22;10757;51.038;3.712;2022-11-03T13:33:30;16.70;99.90
21199;DHT22;10757;51.038;3.712;2022-11-03T13:35:55;16.60;99.90
21199;DHT22;10757;51.038;3.712;2022-11-03T13:38:23;16.60;99.90
21199;DHT22;10757;51.038;3.712;2022-11-03T13:40:49;16.70;99.90
21199;DHT22;10757;51.038;3.712;2022-11-03T13:43:15;16.70;99.90
21199;DHT22;10757;51.038;3.712;2022-11-03T13:45:41;16.70;99.90
21199;DHT22;10757;51.038;3.712;2022-11-03T13:48:08;16.70;99.90
21199;DHT22;10757;51.038;3.712;2022-11-03T13:50:35;16.80;99.90
21199;DHT22;10757;51.038;3.712;2022-11-03T13:53:02;16.60;99.90
